sensor_id;sensor_type;location;lat;lon;timestamp;P1;durP1;ratioP1;P2;durP2;ratioP2
72427;SDS011;60419;48.880;18.036;2023-01-31T00:00:34;5.55;;;2.35;;
72427;SDS011;60419;48.880;18.036;2023-01-31T00:03:20;4.47;;;2.65;;
72427;SDS011;60419;48.880;18.036;2023-01-31T00:06:24;6.70;;;2.63;;
72427;SDS011;60419;48.880;18.036;2023-01-31T00:09:14;6.88;;;2.92;;
72427;SDS011;60419;48.880;18.036;2023-01-31T00:12:00;4.53;;;2.55;;
72427;SDS011;60419;48.880;18.036;2023-01-31T00:14:45;8.63;;;3.00;;
72427;SDS011;60419;48.880;18.036;2023-01-31T00:17:30;6.95;;;2.85;;
72427;SDS011;60419;48.880;18.036;2023-01-31T00:20:16;8.93;;;2.50;;
72427;SDS011;60419;48.880;18.036;2023-01-31T00:23:02;6.25;;;2.53;;
72427;SDS011;60419;48.880;18.036;2023-01-31T00:25:47;6.00;;;2.53;;
72427;SDS011;60419;48.880;18.036;2023-01-31T00:28:33;8.13;;;2.60;;
72427;SDS011;60419;48.880;18.036;2023-01-31T00:31:19;5.72;;;2.75;;
72427;SDS011;60419;48.880;18.036;2023-01-31T00:34:05;8.20;;;2.67;;
72427;SDS011;60419;48.880;18.036;2023-01-31T00:36:50;7.63;;;2.65;;
72427;SDS011;60419;48.880;18.036;2023-01-31T00:39:36;6.38;;;2.60;;
72427;SDS011;60419;48.880;18.036;2023-01-31T00:42:21;6.40;;;2.97;;
72427;SDS011;60419;48.880;18.036;2023-01-31T00:45:06;8.30;;;2.95;;
72427;SDS011;60419;48.880;18.036;2023-01-31T00:47:52;10.68;;;2.63;;
72427;SDS011;60419;48.880;18.036;2023-01-31T00:50:37;5.05;;;2.55;;
72427;SDS011;60419;48.880;18.036;2023-01-31T00:53:23;7.72;;;2.65;;
72427;SDS011;60419;48.880;18.036;2023-01-31T00:56:10;5.10;;;2.72;;
72427;SDS011;60419;48.880;18.036;2023-01-31T00:58:57;10.30;;;3.03;;
72427;SDS011;60419;48.880;18.036;2023-01-31T01:01:44;6.95;;;2.38;;
72427;SDS011;60419;48.880;18.036;2023-01-31T01:04:29;10.88;;;2.42;;
72427;SDS011;60419;48.880;18.036;2023-01-31T01:07:15;7.72;;;2.35;;
72427;SDS011;60419;48.880;18.036;2023-01-31T01:10:00;7.00;;;2.40;;
72427;SDS011;60419;48.880;18.036;2023-01-31T01:12:46;7.85;;;2.38;;
72427;SDS011;60419;48.880;18.036;2023-01-31T01:15:31;6.20;;;2.10;;
72427;SDS011;60419;48.880;18.036;2023-01-31T01:18:20;10.25;;;2.42;;
72427;SDS011;60419;48.880;18.036;2023-01-31T01:21:09;9.07;;;2.33;;
72427;SDS011;60419;48.880;18.036;2023-01-31T01:23:58;7.75;;;2.22;;
72427;SDS011;60419;48.880;18.036;2023-01-31T01:26:44;4.88;;;2.17;;
72427;SDS011;60419;48.880;18.036;2023-01-31T01:29:30;6.90;;;2.03;;
72427;SDS011;60419;48.880;18.036;2023-01-31T01:32:16;6.63;;;2.08;;
72427;SDS011;60419;48.880;18.036;2023-01-31T01:35:02;6.50;;;1.50;;
72427;SDS011;60419;48.880;18.036;2023-01-31T01:37:48;7.95;;;1.95;;
72427;SDS011;60419;48.880;18.036;2023-01-31T01:40:34;4.85;;;2.03;;
72427;SDS011;60419;48.880;18.036;2023-01-31T01:43:20;12.27;;;2.28;;
72427;SDS011;60419;48.880;18.036;2023-01-31T01:46:06;7.03;;;2.20;;
72427;SDS011;60419;48.880;18.036;2023-01-31T01:48:56;7.57;;;1.70;;
72427;SDS011;60419;48.880;18.036;2023-01-31T01:51:45;8.48;;;2.30;;
72427;SDS011;60419;48.880;18.036;2023-01-31T01:54:33;7.45;;;1.80;;
72427;SDS011;60419;48.880;18.036;2023-01-31T01:57:25;5.75;;;2.22;;
72427;SDS011;60419;48.880;18.036;2023-01-31T02:00:18;7.13;;;2.03;;
72427;SDS011;60419;48.880;18.036;2023-01-31T02:03:06;9.75;;;2.10;;
72427;SDS011;60419;48.880;18.036;2023-01-31T02:05:56;6.85;;;1.90;;
72427;SDS011;60419;48.880;18.036;2023-01-31T02:08:47;9.82;;;2.05;;
72427;SDS011;60419;48.880;18.036;2023-01-31T02:11:33;9.20;;;1.90;;
72427;SDS011;60419;48.880;18.036;2023-01-31T02:14:18;10.10;;;2.20;;
72427;SDS011;60419;48.880;18.036;2023-01-31T02:17:04;10.30;;;2.35;;
72427;SDS011;60419;48.880;18.036;2023-01-31T02:20:09;10.20;;;2.17;;
72427;SDS011;60419;48.880;18.036;2023-01-31T02:35:09;7.60;;;1.83;;
72427;SDS011;60419;48.880;18.036;2023-01-31T02:41:15;11.80;;;2.55;;
72427;SDS011;60419;48.880;18.036;2023-01-31T02:44:12;6.05;;;1.95;;
72427;SDS011;60419;48.880;18.036;2023-01-31T02:50:45;7.22;;;1.80;;
72427;SDS011;60419;48.880;18.036;2023-01-31T02:53:44;9.25;;;1.90;;
72427;SDS011;60419;48.880;18.036;2023-01-31T02:56:35;8.52;;;1.67;;
72427;SDS011;60419;48.880;18.036;2023-01-31T02:59:23;7.15;;;1.80;;
72427;SDS011;60419;48.880;18.036;2023-01-31T03:02:11;8.98;;;1.77;;
72427;SDS011;60419;48.880;18.036;2023-01-31T03:04:57;9.50;;;1.95;;
72427;SDS011;60419;48.880;18.036;2023-01-31T03:07:43;10.07;;;2.30;;
72427;SDS011;60419;48.880;18.036;2023-01-31T03:11:14;6.20;;;1.95;;
72427;SDS011;60419;48.880;18.036;2023-01-31T03:13:51;10.13;;;2.10;;
72427;SDS011;60419;48.880;18.036;2023-01-31T03:16:49;7.82;;;2.50;;
72427;SDS011;60419;48.880;18.036;2023-01-31T03:23:31;11.30;;;2.60;;
72427;SDS011;60419;48.880;18.036;2023-01-31T03:26:21;9.38;;;2.33;;
72427;SDS011;60419;48.880;18.036;2023-01-31T03:29:07;7.43;;;1.85;;
72427;SDS011;60419;48.880;18.036;2023-01-31T03:31:59;7.03;;;2.67;;
72427;SDS011;60419;48.880;18.036;2023-01-31T03:34:50;9.07;;;2.38;;
72427;SDS011;60419;48.880;18.036;2023-01-31T03:37:43;8.73;;;2.28;;
72427;SDS011;60419;48.880;18.036;2023-01-31T03:40:39;9.60;;;2.42;;
72427;SDS011;60419;48.880;18.036;2023-01-31T03:43:32;12.50;;;2.10;;
72427;SDS011;60419;48.880;18.036;2023-01-31T03:46:28;7.78;;;2.33;;
72427;SDS011;60419;48.880;18.036;2023-01-31T03:49:19;8.30;;;2.40;;
72427;SDS011;60419;48.880;18.036;2023-01-31T03:52:08;9.35;;;2.10;;
72427;SDS011;60419;48.880;18.036;2023-01-31T03:55:01;9.05;;;2.10;;
72427;SDS011;60419;48.880;18.036;2023-01-31T03:57:53;8.77;;;2.05;;
72427;SDS011;60419;48.880;18.036;2023-01-31T04:00:40;8.40;;;2.10;;
72427;SDS011;60419;48.880;18.036;2023-01-31T04:03:29;6.05;;;2.10;;
72427;SDS011;60419;48.880;18.036;2023-01-31T04:06:20;7.88;;;2.00;;
72427;SDS011;60419;48.880;18.036;2023-01-31T04:09:06;6.63;;;2.28;;
72427;SDS011;60419;48.880;18.036;2023-01-31T04:11:51;3.53;;;1.70;;
72427;SDS011;60419;48.880;18.036;2023-01-31T04:14:37;4.82;;;1.70;;
72427;SDS011;60419;48.880;18.036;2023-01-31T04:17:22;7.22;;;1.80;;
72427;SDS011;60419;48.880;18.036;2023-01-31T04:20:07;7.05;;;2.33;;
72427;SDS011;60419;48.880;18.036;2023-01-31T04:22:54;8.70;;;1.88;;
72427;SDS011;60419;48.880;18.036;2023-01-31T04:25:39;5.80;;;1.88;;
72427;SDS011;60419;48.880;18.036;2023-01-31T04:28:24;4.07;;;1.80;;
72427;SDS011;60419;48.880;18.036;2023-01-31T04:31:09;4.68;;;1.80;;
72427;SDS011;60419;48.880;18.036;2023-01-31T04:33:55;4.72;;;1.45;;
72427;SDS011;60419;48.880;18.036;2023-01-31T04:36:41;7.03;;;1.65;;
72427;SDS011;60419;48.880;18.036;2023-01-31T04:39:27;3.55;;;1.80;;
72427;SDS011;60419;48.880;18.036;2023-01-31T04:42:12;3.28;;;1.80;;
72427;SDS011;60419;48.880;18.036;2023-01-31T04:44:57;4.82;;;1.45;;
72427;SDS011;60419;48.880;18.036;2023-01-31T04:47:43;5.03;;;1.80;;
72427;SDS011;60419;48.880;18.036;2023-01-31T04:50:29;6.25;;;1.63;;
72427;SDS011;60419;48.880;18.036;2023-01-31T04:53:14;6.07;;;1.50;;
72427;SDS011;60419;48.880;18.036;2023-01-31T04:55:59;8.98;;;2.28;;
72427;SDS011;60419;48.880;18.036;2023-01-31T04:58:45;7.15;;;1.73;;
72427;SDS011;60419;48.880;18.036;2023-01-31T05:01:32;8.77;;;1.27;;
72427;SDS011;60419;48.880;18.036;2023-01-31T05:04:17;4.82;;;1.75;;
72427;SDS011;60419;48.880;18.036;2023-01-31T05:07:02;5.40;;;1.75;;
72427;SDS011;60419;48.880;18.036;2023-01-31T05:09:48;9.50;;;2.05;;
72427;SDS011;60419;48.880;18.036;2023-01-31T05:12:33;7.43;;;2.03;;
72427;SDS011;60419;48.880;18.036;2023-01-31T05:15:18;8.57;;;1.85;;
72427;SDS011;60419;48.880;18.036;2023-01-31T05:18:05;4.97;;;1.77;;
72427;SDS011;60419;48.880;18.036;2023-01-31T05:20:51;7.57;;;2.40;;
72427;SDS011;60419;48.880;18.036;2023-01-31T05:23:36;8.98;;;2.83;;
72427;SDS011;60419;48.880;18.036;2023-01-31T05:26:21;7.43;;;1.83;;
72427;SDS011;60419;48.880;18.036;2023-01-31T05:29:07;5.03;;;1.58;;
72427;SDS011;60419;48.880;18.036;2023-01-31T05:31:52;4.82;;;1.88;;
72427;SDS011;60419;48.880;18.036;2023-01-31T05:34:39;7.68;;;2.53;;
72427;SDS011;60419;48.880;18.036;2023-01-31T05:37:24;9.40;;;1.92;;
72427;SDS011;60419;48.880;18.036;2023-01-31T05:40:10;9.75;;;2.10;;
72427;SDS011;60419;48.880;18.036;2023-01-31T05:42:57;6.30;;;2.22;;
72427;SDS011;60419;48.880;18.036;2023-01-31T05:45:47;6.60;;;1.88;;
72427;SDS011;60419;48.880;18.036;2023-01-31T05:48:33;5.88;;;2.22;;
72427;SDS011;60419;48.880;18.036;2023-01-31T05:51:18;8.60;;;2.08;;
72427;SDS011;60419;48.880;18.036;2023-01-31T05:54:04;7.00;;;2.40;;
72427;SDS011;60419;48.880;18.036;2023-01-31T05:56:49;6.43;;;2.03;;
72427;SDS011;60419;48.880;18.036;2023-01-31T05:59:35;6.47;;;2.10;;
72427;SDS011;60419;48.880;18.036;2023-01-31T06:02:20;8.80;;;2.00;;
72427;SDS011;60419;48.880;18.036;2023-01-31T06:05:06;9.20;;;1.75;;
72427;SDS011;60419;48.880;18.036;2023-01-31T06:07:51;7.32;;;1.88;;
72427;SDS011;60419;48.880;18.036;2023-01-31T06:10:37;8.52;;;1.80;;
72427;SDS011;60419;48.880;18.036;2023-01-31T06:13:22;6.57;;;2.05;;
72427;SDS011;60419;48.880;18.036;2023-01-31T06:16:08;5.85;;;1.80;;
72427;SDS011;60419;48.880;18.036;2023-01-31T06:18:54;6.18;;;2.42;;
72427;SDS011;60419;48.880;18.036;2023-01-31T06:21:40;7.65;;;1.98;;
72427;SDS011;60419;48.880;18.036;2023-01-31T06:24:26;6.38;;;1.67;;
72427;SDS011;60419;48.880;18.036;2023-01-31T06:27:11;10.32;;;2.00;;
72427;SDS011;60419;48.880;18.036;2023-01-31T06:29:56;7.75;;;1.88;;
72427;SDS011;60419;48.880;18.036;2023-01-31T06:32:42;6.28;;;1.60;;
72427;SDS011;60419;48.880;18.036;2023-01-31T06:35:27;4.75;;;2.10;;
72427;SDS011;60419;48.880;18.036;2023-01-31T06:38:13;6.75;;;1.80;;
72427;SDS011;60419;48.880;18.036;2023-01-31T06:41:00;6.15;;;2.00;;
72427;SDS011;60419;48.880;18.036;2023-01-31T06:43:45;7.82;;;2.35;;
72427;SDS011;60419;48.880;18.036;2023-01-31T06:46:31;8.45;;;1.92;;
72427;SDS011;60419;48.880;18.036;2023-01-31T06:49:16;5.90;;;1.67;;
72427;SDS011;60419;48.880;18.036;2023-01-31T06:52:02;8.93;;;2.17;;
72427;SDS011;60419;48.880;18.036;2023-01-31T06:54:47;6.55;;;1.63;;
72427;SDS011;60419;48.880;18.036;2023-01-31T06:57:32;7.57;;;1.98;;
72427;SDS011;60419;48.880;18.036;2023-01-31T07:00:18;6.30;;;1.88;;
72427;SDS011;60419;48.880;18.036;2023-01-31T07:03:03;6.45;;;1.88;;
72427;SDS011;60419;48.880;18.036;2023-01-31T07:05:48;9.23;;;2.05;;
72427;SDS011;60419;48.880;18.036;2023-01-31T07:08:34;6.50;;;1.70;;
72427;SDS011;60419;48.880;18.036;2023-01-31T07:11:19;7.28;;;1.70;;
72427;SDS011;60419;48.880;18.036;2023-01-31T07:14:05;6.07;;;1.80;;
72427;SDS011;60419;48.880;18.036;2023-01-31T07:16:50;6.00;;;1.95;;
72427;SDS011;60419;48.880;18.036;2023-01-31T07:19:36;8.75;;;1.83;;
72427;SDS011;60419;48.880;18.036;2023-01-31T07:22:21;5.40;;;1.42;;
72427;SDS011;60419;48.880;18.036;2023-01-31T07:25:06;8.70;;;2.05;;
72427;SDS011;60419;48.880;18.036;2023-01-31T07:27:52;9.20;;;2.60;;
72427;SDS011;60419;48.880;18.036;2023-01-31T07:30:37;8.15;;;2.40;;
72427;SDS011;60419;48.880;18.036;2023-01-31T07:33:23;6.28;;;2.25;;
72427;SDS011;60419;48.880;18.036;2023-01-31T07:36:10;8.35;;;2.53;;
72427;SDS011;60419;48.880;18.036;2023-01-31T07:38:57;7.40;;;2.33;;
72427;SDS011;60419;48.880;18.036;2023-01-31T07:41:44;7.60;;;2.00;;
72427;SDS011;60419;48.880;18.036;2023-01-31T07:44:30;5.20;;;2.00;;
72427;SDS011;60419;48.880;18.036;2023-01-31T07:47:15;10.73;;;2.35;;
72427;SDS011;60419;48.880;18.036;2023-01-31T07:50:00;5.38;;;2.15;;
72427;SDS011;60419;48.880;18.036;2023-01-31T07:52:46;5.90;;;1.90;;
72427;SDS011;60419;48.880;18.036;2023-01-31T07:55:32;6.32;;;1.80;;
72427;SDS011;60419;48.880;18.036;2023-01-31T07:58:18;6.72;;;2.08;;
72427;SDS011;60419;48.880;18.036;2023-01-31T08:01:03;7.55;;;2.00;;
72427;SDS011;60419;48.880;18.036;2023-01-31T08:04:09;7.55;;;1.90;;
72427;SDS011;60419;48.880;18.036;2023-01-31T08:06:56;7.20;;;2.05;;
72427;SDS011;60419;48.880;18.036;2023-01-31T08:09:43;7.63;;;2.00;;
72427;SDS011;60419;48.880;18.036;2023-01-31T08:12:30;7.43;;;2.15;;
72427;SDS011;60419;48.880;18.036;2023-01-31T08:15:16;5.25;;;2.25;;
72427;SDS011;60419;48.880;18.036;2023-01-31T08:18:01;5.93;;;1.98;;
72427;SDS011;60419;48.880;18.036;2023-01-31T08:20:46;4.45;;;1.77;;
72427;SDS011;60419;48.880;18.036;2023-01-31T08:23:32;4.70;;;1.67;;
72427;SDS011;60419;48.880;18.036;2023-01-31T08:26:19;8.80;;;1.67;;
72427;SDS011;60419;48.880;18.036;2023-01-31T08:29:06;7.63;;;2.22;;
72427;SDS011;60419;48.880;18.036;2023-01-31T08:31:52;6.25;;;1.98;;
72427;SDS011;60419;48.880;18.036;2023-01-31T08:34:37;6.95;;;1.98;;
72427;SDS011;60419;48.880;18.036;2023-01-31T08:37:23;6.55;;;2.00;;
72427;SDS011;60419;48.880;18.036;2023-01-31T08:40:08;4.78;;;1.88;;
72427;SDS011;60419;48.880;18.036;2023-01-31T08:42:54;5.90;;;2.08;;
72427;SDS011;60419;48.880;18.036;2023-01-31T08:45:40;8.55;;;2.08;;
72427;SDS011;60419;48.880;18.036;2023-01-31T08:48:26;11.52;;;1.90;;
72427;SDS011;60419;48.880;18.036;2023-01-31T08:51:11;7.85;;;2.30;;
72427;SDS011;60419;48.880;18.036;2023-01-31T08:53:57;7.13;;;2.13;;
72427;SDS011;60419;48.880;18.036;2023-01-31T08:56:43;5.53;;;2.05;;
72427;SDS011;60419;48.880;18.036;2023-01-31T08:59:28;6.25;;;2.33;;
72427;SDS011;60419;48.880;18.036;2023-01-31T09:02:13;8.80;;;1.90;;
72427;SDS011;60419;48.880;18.036;2023-01-31T09:04:59;5.80;;;2.10;;
72427;SDS011;60419;48.880;18.036;2023-01-31T09:07:44;6.35;;;1.90;;
72427;SDS011;60419;48.880;18.036;2023-01-31T09:10:29;5.05;;;2.30;;
72427;SDS011;60419;48.880;18.036;2023-01-31T09:13:16;9.40;;;2.08;;
72427;SDS011;60419;48.880;18.036;2023-01-31T09:16:05;4.72;;;1.90;;
72427;SDS011;60419;48.880;18.036;2023-01-31T09:18:53;5.38;;;1.60;;
72427;SDS011;60419;48.880;18.036;2023-01-31T09:21:39;5.65;;;2.33;;
72427;SDS011;60419;48.880;18.036;2023-01-31T09:24:25;5.75;;;2.00;;
72427;SDS011;60419;48.880;18.036;2023-01-31T09:27:10;9.25;;;2.38;;
72427;SDS011;60419;48.880;18.036;2023-01-31T09:29:56;7.00;;;2.15;;
72427;SDS011;60419;48.880;18.036;2023-01-31T09:32:41;6.53;;;1.48;;
72427;SDS011;60419;48.880;18.036;2023-01-31T09:35:28;7.30;;;1.95;;
72427;SDS011;60419;48.880;18.036;2023-01-31T09:38:13;8.85;;;2.13;;
72427;SDS011;60419;48.880;18.036;2023-01-31T09:41:00;4.03;;;1.40;;
72427;SDS011;60419;48.880;18.036;2023-01-31T09:43:49;5.60;;;2.13;;
72427;SDS011;60419;48.880;18.036;2023-01-31T09:50:10;6.47;;;1.73;;
72427;SDS011;60419;48.880;18.036;2023-01-31T09:53:04;6.35;;;1.60;;
72427;SDS011;60419;48.880;18.036;2023-01-31T10:08:19;4.82;;;1.70;;
72427;SDS011;60419;48.880;18.036;2023-01-31T10:11:10;4.57;;;1.52;;
72427;SDS011;60419;48.880;18.036;2023-01-31T10:14:20;5.55;;;1.70;;
72427;SDS011;60419;48.880;18.036;2023-01-31T10:20:19;7.97;;;1.65;;
72427;SDS011;60419;48.880;18.036;2023-01-31T10:23:13;4.85;;;1.70;;
72427;SDS011;60419;48.880;18.036;2023-01-31T10:26:05;6.32;;;1.80;;
72427;SDS011;60419;48.880;18.036;2023-01-31T10:32:11;6.10;;;1.80;;
72427;SDS011;60419;48.880;18.036;2023-01-31T10:41:12;5.60;;;1.85;;
72427;SDS011;60419;48.880;18.036;2023-01-31T10:44:11;3.90;;;1.40;;
72427;SDS011;60419;48.880;18.036;2023-01-31T10:47:06;3.97;;;1.30;;
72427;SDS011;60419;48.880;18.036;2023-01-31T10:49:57;5.07;;;1.77;;
72427;SDS011;60419;48.880;18.036;2023-01-31T10:58:51;4.13;;;1.55;;
72427;SDS011;60419;48.880;18.036;2023-01-31T11:01:37;3.42;;;1.35;;
72427;SDS011;60419;48.880;18.036;2023-01-31T11:04:39;4.75;;;1.83;;
72427;SDS011;60419;48.880;18.036;2023-01-31T11:07:29;5.72;;;1.95;;
72427;SDS011;60419;48.880;18.036;2023-01-31T11:10:19;5.22;;;2.05;;
72427;SDS011;60419;48.880;18.036;2023-01-31T11:13:16;6.53;;;2.45;;
72427;SDS011;60419;48.880;18.036;2023-01-31T11:16:03;5.32;;;1.90;;
72427;SDS011;60419;48.880;18.036;2023-01-31T11:18:52;6.72;;;2.05;;
72427;SDS011;60419;48.880;18.036;2023-01-31T11:21:38;4.68;;;1.80;;
72427;SDS011;60419;48.880;18.036;2023-01-31T11:24:25;3.58;;;1.60;;
72427;SDS011;60419;48.880;18.036;2023-01-31T11:27:18;4.78;;;1.60;;
72427;SDS011;60419;48.880;18.036;2023-01-31T11:30:22;3.35;;;1.70;;
72427;SDS011;60419;48.880;18.036;2023-01-31T11:33:35;6.25;;;1.85;;
72427;SDS011;60419;48.880;18.036;2023-01-31T11:36:25;5.93;;;1.80;;
72427;SDS011;60419;48.880;18.036;2023-01-31T11:39:26;5.38;;;1.60;;
72427;SDS011;60419;48.880;18.036;2023-01-31T11:42:17;3.80;;;1.70;;
72427;SDS011;60419;48.880;18.036;2023-01-31T11:45:03;7.28;;;2.33;;
72427;SDS011;60419;48.880;18.036;2023-01-31T11:51:09;4.75;;;2.00;;
72427;SDS011;60419;48.880;18.036;2023-01-31T11:54:09;5.05;;;2.30;;
72427;SDS011;60419;48.880;18.036;2023-01-31T11:57:00;6.25;;;2.53;;
72427;SDS011;60419;48.880;18.036;2023-01-31T11:59:47;5.15;;;2.65;;
72427;SDS011;60419;48.880;18.036;2023-01-31T12:02:36;6.75;;;1.98;;
72427;SDS011;60419;48.880;18.036;2023-01-31T12:05:28;5.97;;;2.40;;
72427;SDS011;60419;48.880;18.036;2023-01-31T12:14:13;7.50;;;2.50;;
72427;SDS011;60419;48.880;18.036;2023-01-31T12:17:00;6.10;;;2.50;;
72427;SDS011;60419;48.880;18.036;2023-01-31T12:19:59;3.85;;;2.15;;
72427;SDS011;60419;48.880;18.036;2023-01-31T12:25:42;4.80;;;2.30;;
72427;SDS011;60419;48.880;18.036;2023-01-31T12:28:53;4.90;;;1.88;;
72427;SDS011;60419;48.880;18.036;2023-01-31T12:32:08;4.47;;;1.95;;
72427;SDS011;60419;48.880;18.036;2023-01-31T12:41:20;5.55;;;2.28;;
72427;SDS011;60419;48.880;18.036;2023-01-31T12:44:23;5.45;;;2.25;;
72427;SDS011;60419;48.880;18.036;2023-01-31T12:51:33;4.13;;;1.85;;
72427;SDS011;60419;48.880;18.036;2023-01-31T12:57:47;5.95;;;1.83;;
72427;SDS011;60419;48.880;18.036;2023-01-31T13:07:47;4.47;;;1.92;;
72427;SDS011;60419;48.880;18.036;2023-01-31T13:10:57;5.40;;;2.30;;
72427;SDS011;60419;48.880;18.036;2023-01-31T13:13:27;3.72;;;2.00;;
72427;SDS011;60419;48.880;18.036;2023-01-31T13:16:29;4.03;;;1.95;;
72427;SDS011;60419;48.880;18.036;2023-01-31T13:19:21;4.40;;;1.80;;
72427;SDS011;60419;48.880;18.036;2023-01-31T13:22:13;3.85;;;1.73;;
72427;SDS011;60419;48.880;18.036;2023-01-31T13:25:13;4.78;;;2.10;;
72427;SDS011;60419;48.880;18.036;2023-01-31T13:28:05;4.10;;;2.20;;
72427;SDS011;60419;48.880;18.036;2023-01-31T13:30:55;5.00;;;2.05;;
72427;SDS011;60419;48.880;18.036;2023-01-31T13:33:45;3.47;;;2.03;;
72427;SDS011;60419;48.880;18.036;2023-01-31T13:36:42;5.80;;;1.70;;
72427;SDS011;60419;48.880;18.036;2023-01-31T13:39:34;5.53;;;2.33;;
72427;SDS011;60419;48.880;18.036;2023-01-31T13:42:23;8.95;;;3.30;;
72427;SDS011;60419;48.880;18.036;2023-01-31T13:45:16;7.53;;;2.83;;
72427;SDS011;60419;48.880;18.036;2023-01-31T13:48:07;6.05;;;2.55;;
72427;SDS011;60419;48.880;18.036;2023-01-31T13:51:15;6.43;;;2.45;;
72427;SDS011;60419;48.880;18.036;2023-01-31T13:54:24;5.47;;;2.50;;
72427;SDS011;60419;48.880;18.036;2023-01-31T13:57:23;6.97;;;2.90;;
72427;SDS011;60419;48.880;18.036;2023-01-31T14:03:20;6.80;;;2.72;;
72427;SDS011;60419;48.880;18.036;2023-01-31T14:06:05;8.63;;;3.13;;
72427;SDS011;60419;48.880;18.036;2023-01-31T14:11:42;7.90;;;3.42;;
72427;SDS011;60419;48.880;18.036;2023-01-31T14:20:23;7.93;;;3.38;;
72427;SDS011;60419;48.880;18.036;2023-01-31T14:23:27;5.90;;;2.88;;
72427;SDS011;60419;48.880;18.036;2023-01-31T14:29:28;5.22;;;2.67;;
72427;SDS011;60419;48.880;18.036;2023-01-31T14:32:16;7.18;;;2.90;;
72427;SDS011;60419;48.880;18.036;2023-01-31T14:40:56;5.07;;;2.35;;
72427;SDS011;60419;48.880;18.036;2023-01-31T14:44:36;9.32;;;3.30;;
72427;SDS011;60419;48.880;18.036;2023-01-31T15:11:04;6.15;;;2.72;;
72427;SDS011;60419;48.880;18.036;2023-01-31T15:13:56;5.68;;;2.47;;
72427;SDS011;60419;48.880;18.036;2023-01-31T15:16:42;7.13;;;2.85;;
72427;SDS011;60419;48.880;18.036;2023-01-31T15:19:29;8.18;;;2.58;;
72427;SDS011;60419;48.880;18.036;2023-01-31T15:22:20;7.95;;;2.97;;
72427;SDS011;60419;48.880;18.036;2023-01-31T15:28:14;11.55;;;3.03;;
72427;SDS011;60419;48.880;18.036;2023-01-31T15:31:03;6.05;;;2.40;;
72427;SDS011;60419;48.880;18.036;2023-01-31T15:33:58;6.25;;;2.28;;
72427;SDS011;60419;48.880;18.036;2023-01-31T15:36:52;6.63;;;2.67;;
72427;SDS011;60419;48.880;18.036;2023-01-31T15:40:03;9.57;;;2.80;;
72427;SDS011;60419;48.880;18.036;2023-01-31T15:49:09;7.70;;;2.55;;
72427;SDS011;60419;48.880;18.036;2023-01-31T15:52:15;6.97;;;3.20;;
72427;SDS011;60419;48.880;18.036;2023-01-31T15:55:03;7.28;;;2.20;;
72427;SDS011;60419;48.880;18.036;2023-01-31T15:57:54;8.90;;;2.15;;
72427;SDS011;60419;48.880;18.036;2023-01-31T16:00:42;4.25;;;2.10;;
72427;SDS011;60419;48.880;18.036;2023-01-31T16:03:29;8.30;;;1.98;;
72427;SDS011;60419;48.880;18.036;2023-01-31T16:06:20;8.38;;;2.67;;
72427;SDS011;60419;48.880;18.036;2023-01-31T16:09:06;6.97;;;2.28;;
72427;SDS011;60419;48.880;18.036;2023-01-31T16:12:07;7.00;;;2.30;;
72427;SDS011;60419;48.880;18.036;2023-01-31T16:14:54;7.25;;;2.42;;
72427;SDS011;60419;48.880;18.036;2023-01-31T16:17:45;5.60;;;2.35;;
72427;SDS011;60419;48.880;18.036;2023-01-31T16:23:31;8.75;;;2.70;;
72427;SDS011;60419;48.880;18.036;2023-01-31T16:26:21;9.50;;;2.22;;
72427;SDS011;60419;48.880;18.036;2023-01-31T16:29:13;10.82;;;2.70;;
72427;SDS011;60419;48.880;18.036;2023-01-31T16:32:00;6.80;;;2.80;;
72427;SDS011;60419;48.880;18.036;2023-01-31T16:35:20;6.78;;;2.10;;
72427;SDS011;60419;48.880;18.036;2023-01-31T16:38:19;7.03;;;2.40;;
72427;SDS011;60419;48.880;18.036;2023-01-31T16:41:12;6.07;;;2.20;;
72427;SDS011;60419;48.880;18.036;2023-01-31T16:43:58;7.00;;;2.70;;
72427;SDS011;60419;48.880;18.036;2023-01-31T16:46:46;8.60;;;3.25;;
72427;SDS011;60419;48.880;18.036;2023-01-31T16:49:34;7.38;;;2.58;;
72427;SDS011;60419;48.880;18.036;2023-01-31T16:52:25;7.80;;;2.92;;
72427;SDS011;60419;48.880;18.036;2023-01-31T16:55:13;9.63;;;2.60;;
72427;SDS011;60419;48.880;18.036;2023-01-31T16:58:01;9.02;;;2.45;;
72427;SDS011;60419;48.880;18.036;2023-01-31T17:00:46;7.35;;;2.33;;
72427;SDS011;60419;48.880;18.036;2023-01-31T17:03:32;8.77;;;3.22;;
72427;SDS011;60419;48.880;18.036;2023-01-31T17:06:18;6.93;;;2.90;;
72427;SDS011;60419;48.880;18.036;2023-01-31T17:09:06;9.02;;;3.17;;
72427;SDS011;60419;48.880;18.036;2023-01-31T17:11:53;8.73;;;3.03;;
72427;SDS011;60419;48.880;18.036;2023-01-31T17:14:39;9.48;;;3.60;;
72427;SDS011;60419;48.880;18.036;2023-01-31T17:17:29;12.77;;;4.25;;
72427;SDS011;60419;48.880;18.036;2023-01-31T17:20:19;9.25;;;3.67;;
72427;SDS011;60419;48.880;18.036;2023-01-31T17:23:05;14.05;;;3.60;;
72427;SDS011;60419;48.880;18.036;2023-01-31T17:25:50;9.82;;;3.33;;
72427;SDS011;60419;48.880;18.036;2023-01-31T17:28:35;9.93;;;3.47;;
72427;SDS011;60419;48.880;18.036;2023-01-31T17:31:22;7.65;;;2.85;;
72427;SDS011;60419;48.880;18.036;2023-01-31T17:34:12;11.45;;;5.25;;
72427;SDS011;60419;48.880;18.036;2023-01-31T17:36:59;15.18;;;3.90;;
72427;SDS011;60419;48.880;18.036;2023-01-31T17:39:44;9.57;;;2.92;;
72427;SDS011;60419;48.880;18.036;2023-01-31T17:42:30;7.55;;;3.05;;
72427;SDS011;60419;48.880;18.036;2023-01-31T17:45:16;7.32;;;3.03;;
72427;SDS011;60419;48.880;18.036;2023-01-31T17:48:02;7.93;;;2.90;;
72427;SDS011;60419;48.880;18.036;2023-01-31T17:50:47;9.70;;;3.42;;
72427;SDS011;60419;48.880;18.036;2023-01-31T17:53:33;11.60;;;3.40;;
72427;SDS011;60419;48.880;18.036;2023-01-31T17:56:19;8.98;;;3.20;;
72427;SDS011;60419;48.880;18.036;2023-01-31T17:59:04;9.75;;;3.17;;
72427;SDS011;60419;48.880;18.036;2023-01-31T18:01:50;5.93;;;3.28;;
72427;SDS011;60419;48.880;18.036;2023-01-31T18:04:36;8.60;;;3.20;;
72427;SDS011;60419;48.880;18.036;2023-01-31T18:07:21;8.88;;;3.20;;
72427;SDS011;60419;48.880;18.036;2023-01-31T18:10:07;9.73;;;3.50;;
72427;SDS011;60419;48.880;18.036;2023-01-31T18:12:53;11.40;;;3.38;;
72427;SDS011;60419;48.880;18.036;2023-01-31T18:15:38;11.25;;;3.80;;
72427;SDS011;60419;48.880;18.036;2023-01-31T18:18:24;9.50;;;4.05;;
72427;SDS011;60419;48.880;18.036;2023-01-31T18:21:10;11.00;;;3.72;;
72427;SDS011;60419;48.880;18.036;2023-01-31T18:23:56;10.02;;;3.63;;
72427;SDS011;60419;48.880;18.036;2023-01-31T18:26:42;8.32;;;3.95;;
72427;SDS011;60419;48.880;18.036;2023-01-31T18:29:28;8.57;;;4.03;;
72427;SDS011;60419;48.880;18.036;2023-01-31T18:32:14;10.65;;;4.50;;
72427;SDS011;60419;48.880;18.036;2023-01-31T18:35:00;10.98;;;4.30;;
72427;SDS011;60419;48.880;18.036;2023-01-31T18:37:46;8.32;;;3.80;;
72427;SDS011;60419;48.880;18.036;2023-01-31T18:40:32;10.90;;;4.25;;
72427;SDS011;60419;48.880;18.036;2023-01-31T18:43:18;11.35;;;4.30;;
72427;SDS011;60419;48.880;18.036;2023-01-31T18:46:04;9.05;;;4.50;;
72427;SDS011;60419;48.880;18.036;2023-01-31T18:48:50;9.38;;;4.30;;
72427;SDS011;60419;48.880;18.036;2023-01-31T18:51:36;10.77;;;4.28;;
72427;SDS011;60419;48.880;18.036;2023-01-31T18:54:22;14.82;;;4.13;;
72427;SDS011;60419;48.880;18.036;2023-01-31T18:57:07;11.95;;;3.97;;
72427;SDS011;60419;48.880;18.036;2023-01-31T18:59:53;12.27;;;5.05;;
72427;SDS011;60419;48.880;18.036;2023-01-31T19:02:38;12.43;;;5.50;;
72427;SDS011;60419;48.880;18.036;2023-01-31T19:05:23;10.70;;;4.38;;
72427;SDS011;60419;48.880;18.036;2023-01-31T19:08:09;14.05;;;4.20;;